createdAt,value
2023-01-29T00:00:22.013Z,3.50
2023-01-29T00:02:49.142Z,3.57
2023-01-29T00:05:27.421Z,3.27
2023-01-29T00:07:56.134Z,3.20
2023-01-29T00:10:24.970Z,4.83
2023-01-29T00:12:53.988Z,3.47
2023-01-29T00:15:21.041Z,4.83
2023-01-29T00:17:47.663Z,6.73
2023-01-29T00:20:16.096Z,4.67
2023-01-29T00:22:43.042Z,4.83
2023-01-29T00:25:12.080Z,4.80
2023-01-29T00:27:38.483Z,3.00
2023-01-29T00:30:14.935Z,4.07
2023-01-29T00:32:42.331Z,6.37
2023-01-29T00:35:09.344Z,4.50
2023-01-29T00:37:37.506Z,5.63
2023-01-29T00:40:05.109Z,4.00
2023-01-29T00:42:51.149Z,3.73
2023-01-29T00:45:17.899Z,3.70
2023-01-29T00:47:45.932Z,3.63
2023-01-29T00:50:12.890Z,3.97
2023-01-29T00:52:42.625Z,3.47
2023-01-29T00:55:10.561Z,4.10
2023-01-29T00:57:38.590Z,3.17
2023-01-29T01:00:07.468Z,3.83
2023-01-29T01:02:52.589Z,3.93
2023-01-29T01:05:20.965Z,3.90
2023-01-29T01:07:52.721Z,5.80
2023-01-29T01:10:24.895Z,2.80
2023-01-29T01:12:57.395Z,3.47
2023-01-29T01:15:26.261Z,5.50
2023-01-29T01:17:53.796Z,3.37
2023-01-29T01:20:21.529Z,2.87
2023-01-29T01:22:49.439Z,4.90
2023-01-29T01:25:18.885Z,3.23
2023-01-29T01:27:46.539Z,3.73
2023-01-29T01:30:15.356Z,4.80
2023-01-29T01:32:44.459Z,3.93
2023-01-29T01:35:12.572Z,3.77
2023-01-29T01:37:38.968Z,4.40
2023-01-29T01:40:12.698Z,4.00
2023-01-29T01:42:42.364Z,4.40
2023-01-29T01:45:21.658Z,3.17
2023-01-29T01:47:53.060Z,3.23
2023-01-29T01:50:26.802Z,3.23
2023-01-29T01:52:55.443Z,3.73
2023-01-29T01:55:24.323Z,4.77
2023-01-29T01:57:57.376Z,3.50
2023-01-29T02:00:26.051Z,2.53
2023-01-29T02:03:11.414Z,4.70
2023-01-29T02:05:57.966Z,3.47
2023-01-29T02:08:48.583Z,4.73
2023-01-29T02:11:15.085Z,2.87
2023-01-29T02:13:47.201Z,3.50
2023-01-29T02:16:13.714Z,3.63
2023-01-29T02:18:43.924Z,4.23
2023-01-29T02:21:27.301Z,4.60
2023-01-29T02:23:59.893Z,5.13
2023-01-29T02:26:47.259Z,3.03
2023-01-29T02:29:30.417Z,4.93
2023-01-29T02:32:00.753Z,5.13
2023-01-29T02:35:07.699Z,3.50
2023-01-29T02:37:49.581Z,6.90
2023-01-29T02:40:31.407Z,5.10
2023-01-29T02:43:13.579Z,4.40
2023-01-29T02:45:58.945Z,3.63
2023-01-29T02:48:29.570Z,5.67
2023-01-29T02:51:16.959Z,4.10
2023-01-29T02:53:51.834Z,4.97
2023-01-29T02:56:24.175Z,3.53
2023-01-29T02:58:58.531Z,3.97
2023-01-29T03:01:52.633Z,5.60
2023-01-29T03:04:32.117Z,6.97
2023-01-29T03:07:01.217Z,4.97
2023-01-29T03:09:40.187Z,2.93
2023-01-29T03:12:34.637Z,3.87
2023-01-29T03:15:19.311Z,3.95
2023-01-29T03:18:03.117Z,5.07
2023-01-29T03:20:33.961Z,4.73
2023-01-29T03:23:04.094Z,2.90
2023-01-29T03:25:52.817Z,4.63
2023-01-29T03:28:42.476Z,4.67
2023-01-29T03:31:31.501Z,5.03
2023-01-29T03:34:04.250Z,5.50
2023-01-29T03:36:39.686Z,3.73
2023-01-29T03:39:07.623Z,5.40
2023-01-29T03:41:55.885Z,3.63
2023-01-29T03:44:26.811Z,4.67
2023-01-29T03:46:57.230Z,4.97
2023-01-29T03:49:41.507Z,3.73
2023-01-29T03:52:14.947Z,4.00
2023-01-29T03:55:07.223Z,3.27
2023-01-29T03:57:50.790Z,5.83
2023-01-29T04:00:36.022Z,5.50
2023-01-29T04:03:20.210Z,3.90
2023-01-29T04:05:50.938Z,4.67
2023-01-29T04:08:26.390Z,6.35
2023-01-29T04:10:59.572Z,5.17
2023-01-29T04:13:27.010Z,2.97
2023-01-29T04:15:56.958Z,3.70
2023-01-29T04:18:48.087Z,2.77
2023-01-29T04:21:17.026Z,6.40
2023-01-29T04:23:44.935Z,4.27
2023-01-29T04:26:31.929Z,4.23
2023-01-29T04:29:29.763Z,5.10
2023-01-29T04:32:07.800Z,4.47
2023-01-29T04:34:40.505Z,6.00
2023-01-29T04:37:15.850Z,3.47
2023-01-29T04:39:55.649Z,4.47
2023-01-29T04:42:32.536Z,4.60
2023-01-29T04:45:06.811Z,7.37
2023-01-29T04:47:53.604Z,6.30
2023-01-29T04:50:25.294Z,5.65
2023-01-29T04:53:02.625Z,5.67
2023-01-29T04:55:39.977Z,5.50
2023-01-29T04:58:13.429Z,4.07
2023-01-29T05:00:43.747Z,4.03
2023-01-29T05:03:14.307Z,4.23
2023-01-29T05:05:46.308Z,4.77
2023-01-29T05:08:15.184Z,3.20
2023-01-29T05:10:45.698Z,5.37
2023-01-29T05:13:14.744Z,5.23
2023-01-29T05:16:01.918Z,4.40
2023-01-29T05:18:30.901Z,5.03
2023-01-29T05:20:59.207Z,4.40
2023-01-29T05:23:25.557Z,4.23
2023-01-29T05:25:54.735Z,3.77
2023-01-29T05:28:21.735Z,5.20
2023-01-29T05:30:50.333Z,4.60
2023-01-29T05:33:32.216Z,5.80
2023-01-29T05:35:59.635Z,4.67
2023-01-29T05:38:27.552Z,3.83
2023-01-29T05:40:56.802Z,6.37
2023-01-29T05:43:26.197Z,4.73
2023-01-29T05:45:58.829Z,3.10
2023-01-29T05:48:26.340Z,3.97
2023-01-29T05:50:55.059Z,4.97
2023-01-29T05:53:21.818Z,3.60
2023-01-29T05:55:50.117Z,4.93
2023-01-29T05:58:18.492Z,4.23
2023-01-29T06:00:45.601Z,5.93
2023-01-29T06:03:12.911Z,5.87
2023-01-29T06:05:40.862Z,5.03
2023-01-29T06:08:11.319Z,6.13
2023-01-29T06:10:38.041Z,5.20
2023-01-29T06:13:04.520Z,4.33
2023-01-29T06:15:33.737Z,5.60
2023-01-29T06:18:01.038Z,3.90
2023-01-29T06:20:27.500Z,5.07
2023-01-29T06:22:56.299Z,5.10
2023-01-29T06:25:26.059Z,6.20
2023-01-29T06:27:52.765Z,4.37
2023-01-29T06:30:20.523Z,5.50
2023-01-29T06:32:48.378Z,5.47
2023-01-29T06:35:14.893Z,5.10
2023-01-29T06:37:43.364Z,4.80
2023-01-29T06:40:11.133Z,4.60
2023-01-29T06:42:38.725Z,4.80
2023-01-29T06:45:08.469Z,5.33
2023-01-29T06:47:34.833Z,4.77
2023-01-29T06:55:28.655Z,5.27
2023-01-29T06:57:55.851Z,4.67
2023-01-29T07:00:22.719Z,9.33
2023-01-29T07:02:53.457Z,3.57
2023-01-29T07:05:19.792Z,4.70
2023-01-29T07:07:50.339Z,5.57
2023-01-29T07:10:17.015Z,5.70
2023-01-29T07:12:44.530Z,8.00
2023-01-29T07:15:16.857Z,6.40
2023-01-29T07:17:45.716Z,6.93
2023-01-29T07:20:13.298Z,7.10
2023-01-29T07:22:40.311Z,5.90
2023-01-29T07:25:07.266Z,5.37
2023-01-29T07:27:33.718Z,5.97
2023-01-29T07:30:00.524Z,8.57
2023-01-29T07:32:31.069Z,5.43
2023-01-29T07:35:01.269Z,8.20
2023-01-29T07:37:34.999Z,8.03
2023-01-29T07:40:01.410Z,7.63
2023-01-29T07:42:27.835Z,9.50
2023-01-29T07:44:56.583Z,7.40
2023-01-29T07:47:22.942Z,6.53
2023-01-29T07:49:53.171Z,6.33
2023-01-29T07:52:22.100Z,10.40
2023-01-29T07:54:51.510Z,7.10
2023-01-29T07:57:19.276Z,9.50
2023-01-29T07:59:47.142Z,7.13
2023-01-29T08:02:19.638Z,6.80
2023-01-29T08:04:46.194Z,7.30
2023-01-29T08:07:15.603Z,6.57
2023-01-29T08:09:42.374Z,8.17
2023-01-29T08:12:10.325Z,8.73
2023-01-29T08:14:49.350Z,8.60
2023-01-29T08:17:17.642Z,7.03
2023-01-29T08:19:45.647Z,8.30
2023-01-29T08:22:12.483Z,8.83
2023-01-29T08:24:53.765Z,7.27
2023-01-29T08:27:26.614Z,6.90
2023-01-29T08:29:57.616Z,7.67
2023-01-29T08:32:23.934Z,6.63
2023-01-29T08:34:50.949Z,7.83
2023-01-29T08:37:17.319Z,7.13
2023-01-29T08:39:45.600Z,8.10
2023-01-29T08:42:13.094Z,8.00
2023-01-29T08:44:42.839Z,9.07
2023-01-29T08:47:10.491Z,7.40
2023-01-29T08:49:38.078Z,8.50
2023-01-29T08:52:04.682Z,8.93
2023-01-29T08:54:31.255Z,7.80
2023-01-29T08:56:58.105Z,8.80
2023-01-29T08:59:24.942Z,9.33
2023-01-29T09:01:51.267Z,7.17
2023-01-29T09:04:17.631Z,9.63
2023-01-29T09:06:45.399Z,7.80
2023-01-29T09:09:14.494Z,8.90
2023-01-29T09:11:42.577Z,7.40
2023-01-29T09:14:09.852Z,5.43
2023-01-29T09:16:38.237Z,8.07
2023-01-29T09:19:04.781Z,7.77
2023-01-29T09:21:31.642Z,8.30
2023-01-29T09:23:58.075Z,12.43
2023-01-29T09:26:25.669Z,7.37
2023-01-29T09:28:52.622Z,8.47
2023-01-29T09:31:22.147Z,7.77
2023-01-29T09:33:49.136Z,10.10
2023-01-29T09:36:15.820Z,5.00
2023-01-29T09:38:42.798Z,7.97
2023-01-29T09:41:20.160Z,6.90
2023-01-29T09:43:53.534Z,8.53
2023-01-29T09:46:27.449Z,7.83
2023-01-29T09:48:58.748Z,6.67
2023-01-29T09:51:31.642Z,7.40
2023-01-29T09:53:57.959Z,7.73
2023-01-29T09:56:29.212Z,6.70
2023-01-29T09:58:58.682Z,8.33
2023-01-29T10:01:38.631Z,7.53
2023-01-29T10:04:05.150Z,8.17
2023-01-29T10:06:38.746Z,6.30
2023-01-29T10:09:11.710Z,7.27
2023-01-29T10:11:53.451Z,6.87
2023-01-29T10:14:26.945Z,6.17
2023-01-29T10:17:26.079Z,7.73
2023-01-29T10:20:05.787Z,8.07
2023-01-29T10:22:45.319Z,6.70
2023-01-29T10:25:16.285Z,5.63
2023-01-29T10:27:52.449Z,7.97
2023-01-29T10:30:44.128Z,9.88
2023-01-29T10:33:25.929Z,8.80
2023-01-29T10:35:55.942Z,6.23
2023-01-29T10:38:42.788Z,7.37
2023-01-29T10:41:29.821Z,8.43
2023-01-29T10:46:37.364Z,7.60
2023-01-29T10:49:23.504Z,6.60
2023-01-29T10:51:49.921Z,8.07
2023-01-29T10:54:23.211Z,7.07
2023-01-29T10:57:02.543Z,7.97
2023-01-29T10:59:32.165Z,6.63
2023-01-29T11:02:04.952Z,8.17
2023-01-29T11:04:31.642Z,8.10
2023-01-29T11:06:58.422Z,7.13
2023-01-29T11:09:25.064Z,8.77
2023-01-29T11:12:00.667Z,8.67
2023-01-29T11:14:48.737Z,8.77
2023-01-29T11:17:17.836Z,9.57
2023-01-29T11:19:45.877Z,9.13
2023-01-29T11:22:16.466Z,10.23
2023-01-29T11:24:45.425Z,7.67
2023-01-29T11:27:20.990Z,8.77
2023-01-29T11:29:48.830Z,9.73
2023-01-29T11:32:21.071Z,9.00
2023-01-29T11:35:07.334Z,7.87
2023-01-29T11:37:36.632Z,9.13
2023-01-29T11:40:24.707Z,10.63
2023-01-29T11:42:53.867Z,10.93
2023-01-29T11:45:22.111Z,8.40
2023-01-29T11:47:55.420Z,10.07
2023-01-29T11:50:26.679Z,9.43
2023-01-29T11:52:55.958Z,10.90
2023-01-29T11:55:24.139Z,10.60
2023-01-29T11:57:52.745Z,8.03
2023-01-29T12:00:23.558Z,9.03
2023-01-29T12:03:04.919Z,6.87
2023-01-29T12:05:31.268Z,8.50
2023-01-29T12:08:01.197Z,8.83
2023-01-29T12:10:42.160Z,8.00
2023-01-29T12:13:21.130Z,7.67
2023-01-29T12:15:48.561Z,7.77
2023-01-29T12:18:15.912Z,8.33
2023-01-29T12:20:49.053Z,7.57
2023-01-29T12:23:25.885Z,12.53
2023-01-29T12:26:10.150Z,8.17
2023-01-29T12:28:43.031Z,10.13
2023-01-29T12:31:23.112Z,9.03
2023-01-29T12:33:56.267Z,7.87
2023-01-29T12:36:36.543Z,9.13
2023-01-29T12:39:02.955Z,7.80
2023-01-29T12:41:38.818Z,8.50
2023-01-29T12:44:29.879Z,8.27
2023-01-29T12:46:58.920Z,7.87
2023-01-29T12:49:32.657Z,7.87
2023-01-29T12:52:03.454Z,8.77
2023-01-29T12:54:37.155Z,8.27
2023-01-29T12:57:07.746Z,9.80
2023-01-29T12:59:47.703Z,8.03
2023-01-29T13:02:22.106Z,10.60
2023-01-29T13:04:58.041Z,8.43
2023-01-29T13:07:30.695Z,7.13
2023-01-29T13:12:58.991Z,8.20
2023-01-29T13:15:31.218Z,7.30
2023-01-29T13:18:16.350Z,7.77
2023-01-29T13:20:45.042Z,8.37
2023-01-29T13:23:21.948Z,7.50
2023-01-29T13:25:52.905Z,7.83
2023-01-29T13:28:21.906Z,8.83
2023-01-29T13:31:08.295Z,8.07
2023-01-29T13:33:36.493Z,5.63
2023-01-29T13:36:03.979Z,7.03
2023-01-29T13:38:33.574Z,6.87
2023-01-29T13:41:04.493Z,7.63
2023-01-29T13:43:37.820Z,6.27
2023-01-29T13:46:15.277Z,6.97
2023-01-29T13:48:43.012Z,6.03
2023-01-29T13:51:22.242Z,8.10
2023-01-29T13:54:09.027Z,7.97
2023-01-29T13:56:36.783Z,5.40
2023-01-29T13:59:05.787Z,7.50
2023-01-29T14:01:46.238Z,7.50
2023-01-29T14:04:20.707Z,8.30
2023-01-29T14:06:59.586Z,6.67
2023-01-29T14:09:50.923Z,6.13
2023-01-29T14:12:39.555Z,6.60
2023-01-29T14:15:27.708Z,6.17
2023-01-29T14:18:00.071Z,7.20
2023-01-29T14:20:45.212Z,6.70
2023-01-29T14:23:31.274Z,7.33
2023-01-29T14:26:03.228Z,7.33
2023-01-29T14:28:30.960Z,6.30
2023-01-29T14:30:57.661Z,5.90
2023-01-29T14:33:28.651Z,7.73
2023-01-29T14:35:59.636Z,7.83
2023-01-29T14:38:28.851Z,6.60
2023-01-29T14:41:04.540Z,7.33
2023-01-29T14:43:31.715Z,9.90
2023-01-29T14:46:18.239Z,6.57
2023-01-29T14:51:14.957Z,6.97
2023-01-29T14:53:50.094Z,10.57
2023-01-29T14:56:18.179Z,6.13
2023-01-29T14:58:48.094Z,6.63
2023-01-29T15:01:18.424Z,5.03
2023-01-29T15:03:46.716Z,7.57
2023-01-29T15:06:19.669Z,6.33
2023-01-29T15:09:10.141Z,6.13
2023-01-29T15:11:40.396Z,6.07
2023-01-29T15:14:19.416Z,6.67
2023-01-29T15:17:04.971Z,6.63
2023-01-29T15:19:35.838Z,7.53
2023-01-29T15:22:10.232Z,6.33
2023-01-29T15:24:37.647Z,7.43
2023-01-29T15:27:04.533Z,6.83
2023-01-29T15:29:30.906Z,7.60
2023-01-29T15:31:57.963Z,6.13
2023-01-29T15:34:25.419Z,6.57
2023-01-29T15:36:57.277Z,6.10
2023-01-29T15:39:26.348Z,6.17
2023-01-29T15:42:05.740Z,6.20
2023-01-29T15:44:33.162Z,4.47
2023-01-29T15:47:01.122Z,6.03
2023-01-29T15:49:35.872Z,6.07
2023-01-29T15:52:08.117Z,6.00
2023-01-29T15:54:35.632Z,5.87
2023-01-29T15:57:02.669Z,7.00
2023-01-29T15:59:35.005Z,6.80
2023-01-29T16:02:20.613Z,7.10
2023-01-29T16:04:48.774Z,6.28
2023-01-29T16:07:15.756Z,6.17
2023-01-29T16:09:43.098Z,5.60
2023-01-29T16:12:10.878Z,6.07
2023-01-29T16:14:39.244Z,8.47
2023-01-29T16:17:25.297Z,8.07
2023-01-29T16:19:58.265Z,6.50
2023-01-29T16:22:26.123Z,6.03
2023-01-29T16:24:54.172Z,6.30
2023-01-29T16:27:20.773Z,5.13
2023-01-29T16:29:47.918Z,6.00
2023-01-29T16:32:17.614Z,6.53
2023-01-29T16:34:45.145Z,6.23
2023-01-29T16:37:28.460Z,7.03
2023-01-29T16:39:55.054Z,4.43
2023-01-29T16:42:23.394Z,7.37
2023-01-29T16:44:52.813Z,5.67
2023-01-29T16:47:30.520Z,5.67
2023-01-29T16:50:19.139Z,4.73
2023-01-29T16:53:01.369Z,5.17
2023-01-29T16:55:32.710Z,7.00
2023-01-29T16:58:04.453Z,6.47
2023-01-29T17:00:31.198Z,6.60
2023-01-29T17:03:03.488Z,5.83
2023-01-29T17:05:30.788Z,10.10
2023-01-29T17:07:59.610Z,5.17
2023-01-29T17:10:30.373Z,6.43
2023-01-29T17:13:01.268Z,7.33
2023-01-29T17:15:33.160Z,7.53
2023-01-29T17:17:59.845Z,5.93
2023-01-29T17:20:27.798Z,6.17
2023-01-29T17:22:54.425Z,8.27
2023-01-29T17:25:23.985Z,6.20
2023-01-29T17:27:54.881Z,6.23
2023-01-29T17:30:30.900Z,6.60
2023-01-29T17:32:57.201Z,9.97
2023-01-29T17:35:26.240Z,6.10
2023-01-29T17:37:55.707Z,7.20
2023-01-29T17:40:42.101Z,7.10
2023-01-29T17:43:11.734Z,7.07
2023-01-29T17:45:39.816Z,12.57
2023-01-29T17:48:18.516Z,9.87
2023-01-29T17:50:48.466Z,8.27
2023-01-29T17:53:17.407Z,5.90
2023-01-29T17:55:44.112Z,8.33
2023-01-29T17:58:20.124Z,6.93
2023-01-29T18:00:46.945Z,6.37
2023-01-29T18:03:14.714Z,8.40
2023-01-29T18:05:44.788Z,8.37
2023-01-29T18:08:29.900Z,9.50
2023-01-29T18:10:58.105Z,9.03
2023-01-29T18:13:25.104Z,10.10
2023-01-29T18:15:51.770Z,11.57
2023-01-29T18:18:23.025Z,10.70
2023-01-29T18:20:50.931Z,8.17
2023-01-29T18:23:17.310Z,8.07
2023-01-29T18:25:45.996Z,8.30
2023-01-29T18:28:18.102Z,8.57
2023-01-29T18:30:47.714Z,13.10
2023-01-29T18:33:16.560Z,6.43
2023-01-29T18:35:49.945Z,12.20
2023-01-29T18:38:22.307Z,9.70
2023-01-29T18:40:50.615Z,8.20
2023-01-29T18:43:18.231Z,9.23
2023-01-29T18:45:44.633Z,10.77
2023-01-29T18:48:12.496Z,10.27
2023-01-29T18:50:38.861Z,9.50
2023-01-29T18:53:08.075Z,8.27
2023-01-29T18:55:34.473Z,9.03
2023-01-29T18:58:27.426Z,9.93
2023-01-29T19:00:48.352Z,9.60
2023-01-29T19:03:14.923Z,7.87
2023-01-29T19:05:44.854Z,11.23
2023-01-29T19:08:13.004Z,10.37
2023-01-29T19:10:40.585Z,9.40
2023-01-29T19:13:08.603Z,8.60
2023-01-29T19:15:37.737Z,8.90
2023-01-29T19:18:14.480Z,12.47
2023-01-29T19:20:42.414Z,10.87
2023-01-29T19:23:10.098Z,9.37
2023-01-29T19:25:38.264Z,9.73
2023-01-29T19:28:05.696Z,9.80
2023-01-29T19:30:32.592Z,13.17
2023-01-29T19:33:02.351Z,9.10
2023-01-29T19:35:31.389Z,9.23
2023-01-29T19:41:01.590Z,11.33
2023-01-29T19:43:30.707Z,9.83
2023-01-29T19:46:01.063Z,12.70
2023-01-29T19:48:27.908Z,9.00
2023-01-29T19:50:55.408Z,9.83
2023-01-29T19:53:22.604Z,6.70
2023-01-29T19:55:56.697Z,9.57
2023-01-29T19:58:23.751Z,11.07
2023-01-29T20:00:57.209Z,7.60
2023-01-29T20:03:27.615Z,9.87
2023-01-29T20:05:54.121Z,8.97
2023-01-29T20:08:22.357Z,10.33
2023-01-29T20:10:48.997Z,13.77
2023-01-29T20:13:15.977Z,8.67
2023-01-29T20:15:46.009Z,10.93
2023-01-29T20:18:13.638Z,15.77
2023-01-29T20:20:43.825Z,14.77
2023-01-29T20:23:10.648Z,11.33
2023-01-29T20:25:37.363Z,12.07
2023-01-29T20:28:04.976Z,10.10
2023-01-29T20:30:32.136Z,8.83
2023-01-29T20:32:58.961Z,16.03
2023-01-29T20:35:25.448Z,15.70
2023-01-29T20:37:53.363Z,12.87
2023-01-29T20:40:21.392Z,12.87
2023-01-29T20:42:48.143Z,10.93
2023-01-29T20:45:15.442Z,19.77
2023-01-29T20:47:42.701Z,12.70
2023-01-29T20:50:10.118Z,15.63
2023-01-29T20:52:37.403Z,15.70
2023-01-29T20:55:04.650Z,11.73
2023-01-29T20:57:31.464Z,17.20
2023-01-29T20:59:57.929Z,11.93
2023-01-29T21:02:24.600Z,13.60
2023-01-29T21:04:51.096Z,15.33
2023-01-29T21:07:18.905Z,12.13
2023-01-29T21:09:45.333Z,14.17
2023-01-29T21:12:13.286Z,14.57
2023-01-29T21:14:39.721Z,16.13
2023-01-29T21:17:06.153Z,10.43
2023-01-29T21:19:33.190Z,16.03
2023-01-29T21:22:00.985Z,15.57
2023-01-29T21:24:27.646Z,12.87
2023-01-29T21:26:54.126Z,12.73
2023-01-29T21:29:20.716Z,12.93
2023-01-29T21:31:47.136Z,12.50
2023-01-29T21:34:13.500Z,10.30
2023-01-29T21:36:39.974Z,12.57
2023-01-29T21:39:16.617Z,13.37
2023-01-29T21:42:02.627Z,11.45
2023-01-29T21:44:29.310Z,9.97
2023-01-29T21:46:56.145Z,14.13
2023-01-29T21:49:24.166Z,12.93
2023-01-29T21:51:51.754Z,16.40
2023-01-29T21:54:18.391Z,14.70
2023-01-29T21:56:57.348Z,15.40
2023-01-29T21:59:32.141Z,13.50
2023-01-29T22:02:01.931Z,9.70
2023-01-29T22:04:28.862Z,10.37
2023-01-29T22:06:57.720Z,10.87
2023-01-29T22:09:24.318Z,10.97
2023-01-29T22:11:50.689Z,12.20
2023-01-29T22:14:18.631Z,14.67
2023-01-29T22:16:46.721Z,16.33
2023-01-29T22:19:13.603Z,16.77
2023-01-29T22:21:40.108Z,9.73
2023-01-29T22:24:06.697Z,12.10
2023-01-29T22:26:35.088Z,12.30
2023-01-29T22:29:01.711Z,12.30
2023-01-29T22:31:28.150Z,12.53
2023-01-29T22:33:54.566Z,16.57
2023-01-29T22:36:21.297Z,13.30
2023-01-29T22:38:47.691Z,18.30
2023-01-29T22:41:14.495Z,14.03
2023-01-29T22:43:41.300Z,13.80
2023-01-29T22:46:10.237Z,10.73
2023-01-29T22:48:36.944Z,12.20
2023-01-29T22:51:15.030Z,11.37
2023-01-29T22:53:44.644Z,11.50
2023-01-29T22:56:12.089Z,19.07
2023-01-29T22:58:38.554Z,15.10
2023-01-29T23:01:05.020Z,15.30
2023-01-29T23:03:31.531Z,13.80
2023-01-29T23:05:58.019Z,12.23
2023-01-29T23:08:24.480Z,11.93
2023-01-29T23:10:51.086Z,12.53
2023-01-29T23:13:17.561Z,12.17
2023-01-29T23:15:43.993Z,14.03
2023-01-29T23:18:10.462Z,13.40
2023-01-29T23:20:38.511Z,12.37
2023-01-29T23:23:04.952Z,12.47
2023-01-29T23:25:51.307Z,12.27
2023-01-29T23:28:17.755Z,11.13
2023-01-29T23:30:45.205Z,13.33
2023-01-29T23:33:12.333Z,10.17
2023-01-29T23:35:39.191Z,12.10
2023-01-29T23:38:07.027Z,11.43
2023-01-29T23:40:34.764Z,17.73
2023-01-29T23:43:01.153Z,15.40
2023-01-29T23:45:27.590Z,12.03
2023-01-29T23:47:53.984Z,9.67
2023-01-29T23:50:20.604Z,13.07
2023-01-29T23:52:49.633Z,12.73
2023-01-29T23:55:16.251Z,13.20
2023-01-29T23:57:45.454Z,12.33
